Time;durP1;ratioP1;P1;durP2;ratioP2;P2;SDS_P1;SDS_P2;PMS_P1;PMS_P2;Temp;Humidity;BMP_temperature;BMP_pressure;BME280_temperature;BME280_humidity;BME280_pressure;Samples;Min_cycle;Max_cycle;Signal;HPM_P1;HPM_P2
2023/02/10 00:01:43;;;;;;;61.80;32.20;;;;;;;-7.15;63.96;98846.38;108633;1254;96498;-76
2023/02/10 00:04:13;;;;;;;54.50;30.00;;;;;;;-7.10;64.01;98841.93;108360;1254;112079;-75
2023/02/10 00:06:42;;;;;;;54.20;29.00;;;;;;;-7.06;63.98;98845.77;108627;1254;101390;-76
2023/02/10 00:09:13;;;;;;;51.80;29.40;;;;;;;-7.02;63.89;98851.38;108628;1254;99924;-77
2023/02/10 00:12:00;;;;;;;53.40;28.30;;;;;;;-6.98;63.75;98856.79;108297;1254;95716;-76
2023/02/10 00:14:29;;;;;;;51.50;28.40;;;;;;;-6.94;63.66;98856.96;108673;1254;96024;-77
2023/02/10 00:16:58;;;;;;;49.20;26.10;;;;;;;-6.91;63.65;98858.42;108349;1254;102458;-76
2023/02/10 00:19:27;;;;;;;43.10;23.80;;;;;;;-6.86;63.71;98858.02;108641;1254;101407;-77
2023/02/10 00:21:56;;;;;;;42.60;23.70;;;;;;;-6.75;63.68;98857.17;108639;1254;99548;-76
2023/02/10 00:24:24;;;;;;;40.30;21.80;;;;;;;-6.66;63.60;98856.40;108299;1254;95736;-78
2023/02/10 00:26:53;;;;;;;40.30;22.90;;;;;;;-6.59;63.55;98860.98;108659;1254;96003;-76
2023/02/10 00:29:21;;;;;;;38.80;21.60;;;;;;;-6.52;63.43;98865.56;108615;1254;103119;-76
2023/02/10 00:31:49;;;;;;;37.80;21.00;;;;;;;-6.45;63.26;98862.95;108628;1254;109890;-78
2023/02/10 00:34:18;;;;;;;39.70;22.40;;;;;;;-6.39;63.19;98859.20;108782;1251;99945;-76
2023/02/10 00:36:49;;;;;;;42.00;22.50;;;;;;;-6.35;63.18;98863.18;108825;1251;95482;-77
2023/02/10 00:39:18;;;;;;;40.30;22.20;;;;;;;-6.34;63.13;98866.99;108847;1251;96437;-77
2023/02/10 00:41:46;;;;;;;42.60;23.50;;;;;;;-6.39;62.81;98861.27;108851;1251;112219;-76
2023/02/10 00:44:14;;;;;;;42.50;22.20;;;;;;;-6.41;62.79;98852.83;108866;1251;100453;-77
2023/02/10 00:46:42;;;;;;;42.70;22.90;;;;;;;-6.40;62.74;98852.06;108801;1251;107889;-75
2023/02/10 00:49:12;;;;;;;44.30;23.00;;;;;;;-6.40;62.61;98848.91;108857;1251;95571;-76
2023/02/10 00:51:40;;;;;;;44.80;22.90;;;;;;;-6.45;62.73;98846.31;108935;1251;96034;-77
2023/02/10 00:54:09;;;;;;;45.00;23.80;;;;;;;-6.53;62.65;98844.25;108903;1251;103044;-76
2023/02/10 00:56:37;;;;;;;38.50;21.60;;;;;;;-6.58;62.56;98840.98;108876;1251;101210;-76
2023/02/10 00:59:05;;;;;;;56.30;28.60;;;;;;;-6.57;62.66;98842.48;108901;1251;99824;-76
2023/02/10 01:01:33;;;;;;;40.50;21.90;;;;;;;-6.58;62.56;98834.68;108850;1251;95611;-76
2023/02/10 01:04:26;;;;;;;41.80;22.60;;;;;;;-6.68;62.58;98834.45;108885;1251;96017;-76
2023/02/10 01:06:54;;;;;;;50.50;27.70;;;;;;;-6.77;62.61;98832.42;108834;1251;103526;-76
2023/02/10 01:09:22;;;;;;;48.80;27.30;;;;;;;-6.81;62.62;98828.56;108679;1251;101050;-76
2023/02/10 01:11:50;;;;;;;47.90;26.40;;;;;;;-6.85;62.53;98837.67;108861;1251;108517;-76
2023/02/10 01:14:34;;;;;;;47.30;26.70;;;;;;;-6.88;62.61;98841.16;108852;1251;95919;-77
2023/02/10 01:17:02;;;;;;;52.30;28.10;;;;;;;-6.92;62.67;98850.59;108694;1251;96091;-76
2023/02/10 01:19:30;;;;;;;46.90;26.70;;;;;;;-6.93;62.63;98861.46;108859;1251;103503;-76
2023/02/10 01:21:58;;;;;;;48.00;25.70;;;;;;;-6.96;62.57;98874.92;108898;1251;101520;-76
2023/02/10 01:24:26;;;;;;;45.00;25.50;;;;;;;-7.07;62.38;98877.66;108871;1251;100155;-76
2023/02/10 01:26:54;;;;;;;45.40;23.90;;;;;;;-7.20;62.57;98869.30;108846;1251;95888;-77
2023/02/10 01:29:25;;;;;;;51.70;27.60;;;;;;;-7.24;62.80;98866.01;108947;1251;96030;-75
2023/02/10 01:31:54;;;;;;;49.40;26.30;;;;;;;-7.24;62.80;98863.02;108934;1251;102487;-76
2023/02/10 01:34:22;;;;;;;52.10;27.40;;;;;;;-7.25;62.82;98863.62;108892;1251;101336;-76
2023/02/10 01:36:50;;;;;;;44.90;26.00;;;;;;;-7.28;62.69;98866.54;108866;1251;107387;-76
2023/02/10 01:39:18;;;;;;;40.90;24.80;;;;;;;-7.34;62.60;98864.48;108855;1251;95527;-77
2023/02/10 01:41:46;;;;;;;47.60;26.90;;;;;;;-7.42;62.63;98862.59;108896;1251;96491;-76
2023/02/10 01:44:20;;;;;;;47.10;26.20;;;;;;;-7.48;62.64;98859.33;108610;1252;112377;-76
2023/02/10 01:46:50;;;;;;;49.80;26.40;;;;;;;-7.55;62.58;98860.67;108887;1251;101014;-77
2023/02/10 01:49:22;;;;;;;46.20;25.70;;;;;;;-7.65;62.67;98858.64;108882;1251;98841;-75
2023/02/10 01:51:52;;;;;;;;;;;;;;;-7.76;62.95;98856.30;108840;1251;95583;-76
2023/02/10 01:54:27;;;;;;;46.50;25.20;;;;;;;-7.77;63.16;98854.07;108863;1251;97172;-77
2023/02/10 01:56:55;;;;;;;42.40;23.70;;;;;;;-7.80;63.19;98848.94;108630;1252;103897;-75
2023/02/10 01:59:27;;;;;;;44.30;25.30;;;;;;;-7.83;63.26;98850.13;108685;1251;110523;-76
2023/02/10 02:01:56;;;;;;;41.70;22.80;;;;;;;-7.80;63.62;98845.81;108860;1251;100004;-78
2023/02/10 02:04:24;;;;;;;40.10;22.00;;;;;;;-7.71;63.86;98835.66;108850;1251;95562;-76
2023/02/10 02:06:52;;;;;;;41.50;23.40;;;;;;;-7.61;63.77;98829.63;108919;1251;95974;-75
2023/02/10 02:09:26;;;;;;;42.60;24.30;;;;;;;-7.56;63.69;98818.95;108901;1250;103581;-76
2023/02/10 02:12:07;;;;;;;46.20;25.80;;;;;;;-7.58;63.45;98821.81;108939;1250;100390;-77
2023/02/10 02:14:45;;;;;;;43.20;24.10;;;;;;;-7.66;63.46;98824.24;108866;1251;99933;-75
2023/02/10 02:17:25;;;;;;;43.20;24.80;;;;;;;-7.69;63.57;98830.84;108846;1252;95639;-76
2023/02/10 02:23:32;;;;;;;38.90;23.10;;;;;;;-7.85;63.43;98818.24;108366;1257;103710;-76
2023/02/10 02:26:00;;;;;;;39.10;23.30;;;;;;;-7.88;63.68;98812.59;108417;1256;100983;-75
2023/02/10 02:29:09;;;;;;;35.90;22.10;;;;;;;-7.83;64.04;98805.22;108364;1256;99982;-76
2023/02/10 02:31:52;;;;;;;36.50;21.60;;;;;;;-7.70;64.37;98795.05;108350;1256;95760;-78
2023/02/10 02:34:50;;;;;;;35.00;21.80;;;;;;;-7.55;64.35;98791.96;108347;1256;96024;-75
2023/02/10 02:37:24;;;;;;;37.30;21.30;;;;;;;-7.43;64.42;98785.49;108360;1256;103538;-76
2023/02/10 02:39:55;;;;;;;33.40;19.60;;;;;;;-7.30;64.52;98783.15;108378;1256;101578;-76
2023/02/10 02:42:29;;;;;;;34.00;19.50;;;;;;;-7.12;64.61;98777.13;108356;1256;99475;-76
2023/02/10 02:45:00;;;;;;;34.10;19.70;;;;;;;-6.99;64.53;98774.23;108407;1256;95669;-76
2023/02/10 02:47:56;;;;;;;32.60;19.60;;;;;;;-6.92;64.36;98784.08;108395;1256;96542;-76
2023/02/10 02:50:34;;;;;;;31.90;20.00;;;;;;;-6.89;64.25;98791.49;108357;1256;103725;-76
2023/02/10 02:53:13;;;;;;;42.60;22.10;;;;;;;-6.78;64.36;98799.54;108320;1256;101550;-78
2023/02/10 02:55:47;;;;;;;37.80;22.40;;;;;;;-6.67;64.29;98800.81;108385;1256;100025;-76
2023/02/10 02:58:40;;;;;;;35.60;20.90;;;;;;;-6.65;64.03;98801.23;108725;1251;95612;-77
2023/02/10 03:01:17;;;;;;;38.30;20.60;;;;;;;-6.61;64.02;98797.54;108718;1251;95733;-76
2023/02/10 03:03:45;;;;;;;32.70;20.00;;;;;;;-6.57;63.98;98795.06;108714;1251;103645;-77
2023/02/10 03:06:13;;;;;;;36.10;19.10;;;;;;;-6.54;64.02;98788.79;108915;1250;101360;-76
2023/02/10 03:08:42;;;;;;;34.30;21.00;;;;;;;-6.51;64.01;98787.77;108838;1251;99500;-76
2023/02/10 03:11:11;;;;;;;34.90;20.40;;;;;;;-6.47;63.98;98791.28;108913;1251;95606;-76
2023/02/10 03:13:39;;;;;;;33.20;20.10;;;;;;;-6.42;64.13;98785.61;108847;1251;96433;-76
2023/02/10 03:16:07;;;;;;;38.70;21.60;;;;;;;-6.37;63.99;98776.04;108654;1250;103414;-78
2023/02/10 03:18:38;;;;;;;37.70;21.50;;;;;;;-6.32;63.97;98776.52;108892;1251;101377;-76
2023/02/10 03:21:06;;;;;;;43.60;23.90;;;;;;;-6.29;63.84;98776.21;108844;1251;99814;-76
2023/02/10 03:23:35;;;;;;;38.20;21.20;;;;;;;-6.27;63.81;98781.35;108771;1251;95784;-76
2023/02/10 03:26:03;;;;;;;38.40;21.40;;;;;;;-6.27;63.75;98786.77;108945;1251;95989;-76
2023/02/10 03:28:31;;;;;;;37.70;21.70;;;;;;;-6.27;63.73;98786.41;108913;1251;103418;-76
2023/02/10 03:31:04;;;;;;;38.10;21.40;;;;;;;-6.26;63.71;98787.59;108685;1253;101147;-76
2023/02/10 03:33:33;;;;;;;41.30;22.50;;;;;;;-6.25;63.73;98788.44;108815;1251;99338;-77
2023/02/10 03:36:02;;;;;;;37.70;21.20;;;;;;;-6.23;63.74;98789.55;108848;1251;95524;-76
2023/02/10 03:38:30;;;;;;;39.20;22.10;;;;;;;-6.20;63.80;98796.63;108869;1251;96003;-76
2023/02/10 03:40:58;;;;;;;38.00;22.50;;;;;;;-6.18;63.73;98800.56;108797;1253;103727;-78
2023/02/10 03:43:26;;;;;;;41.10;22.30;;;;;;;-6.16;63.56;98800.98;108722;1250;101476;-76
2023/02/10 03:45:54;;;;;;;40.60;22.30;;;;;;;-6.17;63.47;98802.09;108739;1251;100161;-77
2023/02/10 03:48:26;;;;;;;39.70;22.00;;;;;;;-6.19;63.65;98802.17;108835;1251;95898;-76
2023/02/10 03:50:54;;;;;;;43.10;22.00;;;;;;;-6.22;63.60;98797.95;108860;1251;95604;-77
2023/02/10 03:53:22;;;;;;;40.60;22.50;;;;;;;-6.26;63.57;98796.70;108905;1250;103421;-77
2023/02/10 03:55:50;;;;;;;40.90;23.40;;;;;;;-6.27;63.44;98802.55;108869;1251;100916;-76
2023/02/10 03:58:18;;;;;;;38.40;22.20;;;;;;;-6.30;63.40;98805.48;108585;1253;100024;-76
2023/02/10 04:00:46;;;;;;;40.70;22.40;;;;;;;-6.33;63.54;98793.73;108754;1251;95614;-76
2023/02/10 04:03:14;;;;;;;37.80;21.90;;;;;;;-6.35;63.54;98802.23;108753;1251;96078;-76
2023/02/10 04:05:43;;;;;;;36.90;20.70;;;;;;;-6.33;63.49;98805.14;108867;1250;103742;-76
2023/02/10 04:08:11;;;;;;;38.70;22.20;;;;;;;-6.33;63.42;98806.52;108879;1251;101251;-76
2023/02/10 04:10:39;;;;;;;53.70;25.30;;;;;;;-6.32;63.57;98810.15;108930;1251;99566;-77
2023/02/10 04:13:08;;;;;;;52.50;26.80;;;;;;;-6.31;63.53;98810.79;108856;1251;95627;-76
2023/02/10 04:15:36;;;;;;;47.50;26.40;;;;;;;-6.29;63.59;98807.19;108903;1251;97103;-76
2023/02/10 04:18:04;;;;;;;44.40;21.60;;;;;;;-6.28;63.49;98806.08;108645;1250;102867;-77
2023/02/10 04:20:33;;;;;;;39.10;21.80;;;;;;;-6.27;63.65;98799.24;108889;1251;101461;-76
2023/02/10 04:23:01;;;;;;;37.70;21.70;;;;;;;-6.25;63.59;98794.90;108866;1251;99883;-77
2023/02/10 04:25:29;;;;;;;37.50;20.60;;;;;;;-6.21;63.62;98793.50;108794;1251;95572;-76
2023/02/10 04:27:57;;;;;;;34.60;20.70;;;;;;;-6.18;63.75;98795.12;108864;1251;95705;-76
2023/02/10 04:30:25;;;;;;;36.90;20.60;;;;;;;-6.18;63.80;98791.81;108889;1251;103472;-76
2023/02/10 04:32:53;;;;;;;38.50;20.70;;;;;;;-6.16;63.57;98787.17;108913;1251;101197;-76
2023/02/10 04:35:21;;;;;;;39.60;21.60;;;;;;;-6.17;63.54;98790.34;108863;1251;99701;-77
2023/02/10 04:37:49;;;;;;;35.90;20.40;;;;;;;-6.15;63.65;98797.60;108777;1252;95902;-77
2023/02/10 04:40:17;;;;;;;34.90;21.00;;;;;;;-6.13;63.60;98798.75;108795;1251;96005;-77
2023/02/10 04:42:45;;;;;;;37.80;21.10;;;;;;;-6.13;63.36;98802.27;108880;1251;103661;-75
2023/02/10 04:45:13;;;;;;;38.40;21.80;;;;;;;-6.13;63.34;98808.21;108909;1251;101032;-77
2023/02/10 04:47:41;;;;;;;38.70;21.90;;;;;;;-6.14;63.53;98815.44;108876;1251;99965;-76
2023/02/10 04:50:10;;;;;;;36.90;20.60;;;;;;;-6.16;63.46;98812.73;108651;1252;95676;-76
2023/02/10 04:52:38;;;;;;;37.20;20.10;;;;;;;-6.15;63.39;98816.91;108886;1251;96023;-76
2023/02/10 04:55:06;;;;;;;35.50;20.70;;;;;;;-6.15;63.69;98818.98;108918;1251;103745;-78
2023/02/10 04:57:34;;;;;;;38.20;22.60;;;;;;;-6.14;63.69;98822.80;108835;1251;101314;-77
2023/02/10 05:00:02;;;;;;;38.40;23.10;;;;;;;-6.13;63.59;98823.25;108759;1251;100418;-77
2023/02/10 05:02:30;;;;;;;44.10;25.30;;;;;;;-6.17;63.57;98822.08;108871;1251;95624;-76
2023/02/10 05:04:59;;;;;;;44.20;24.50;;;;;;;-6.23;63.47;98830.40;108452;1251;96140;-78
2023/02/10 05:07:27;;;;;;;40.80;22.20;;;;;;;-6.31;63.48;98830.26;108883;1253;103453;-76
2023/02/10 05:09:55;;;;;;;36.50;20.80;;;;;;;-6.34;63.51;98833.20;108913;1251;101089;-76
2023/02/10 05:12:23;;;;;;;36.50;21.30;;;;;;;-6.36;63.60;98831.02;108862;1251;100067;-76
2023/02/10 05:14:51;;;;;;;33.80;20.60;;;;;;;-6.36;63.62;98832.23;108698;1251;95727;-78
2023/02/10 05:17:20;;;;;;;29.50;18.40;;;;;;;-6.40;63.41;98838.73;108926;1251;96177;-75
2023/02/10 05:19:48;;;;;;;31.90;18.50;;;;;;;-6.45;63.54;98845.45;108876;1251;103623;-76
2023/02/10 05:22:16;;;;;;;37.30;21.20;;;;;;;-6.44;63.62;98844.38;108897;1251;101211;-76
2023/02/10 05:24:44;;;;;;;38.50;23.70;;;;;;;-6.47;63.57;98839.41;108902;1251;100040;-76
2023/02/10 05:27:12;;;;;;;55.80;27.90;;;;;;;-6.53;63.60;98838.45;108830;1251;95544;-77
2023/02/10 05:29:40;;;;;;;59.80;30.70;;;;;;;-6.64;63.52;98841.42;108883;1251;95922;-76
2023/02/10 05:32:08;;;;;;;53.20;28.30;;;;;;;-6.68;63.56;98841.63;108921;1251;103245;-76
2023/02/10 05:34:36;;;;;;;51.80;28.00;;;;;;;-6.73;63.90;98841.67;108901;1253;109710;-76
2023/02/10 05:37:04;;;;;;;62.20;32.90;;;;;;;-6.81;63.93;98843.10;108855;1251;100255;-75
2023/02/10 05:39:32;;;;;;;76.50;37.60;;;;;;;-6.88;64.00;98842.52;108872;1251;95527;-76
2023/02/10 05:42:01;;;;;;;74.50;38.20;;;;;;;-6.96;63.85;98848.13;108720;1251;96510;-77
2023/02/10 05:44:31;;;;;;;62.50;33.70;;;;;;;-7.07;64.00;98854.91;108922;1250;103555;-77
2023/02/10 05:46:59;;;;;;;66.10;33.30;;;;;;;-7.08;64.23;98861.07;108911;1251;101305;-78
2023/02/10 05:49:27;;;;;;;70.30;37.50;;;;;;;-7.07;64.26;98860.87;108823;1251;100263;-76
2023/02/10 05:51:55;;;;;;;52.70;27.60;;;;;;;-7.13;64.40;98864.30;108834;1251;96010;-76
2023/02/10 05:54:23;;;;;;;44.60;25.10;;;;;;;-7.20;64.46;98863.88;108902;1251;96515;-76
2023/02/10 05:56:52;;;;;;;41.40;23.20;;;;;;;-7.19;64.59;98863.16;108870;1251;102240;-76
2023/02/10 05:59:20;;;;;;;52.70;28.10;;;;;;;-7.17;64.61;98864.98;108883;1252;109846;-76
2023/02/10 06:01:48;;;;;;;101.90;49.00;;;;;;;-7.16;64.83;98871.77;108831;1251;108282;-76
2023/02/10 06:04:16;;;;;;;101.80;48.00;;;;;;;-7.16;64.76;98870.56;108828;1251;95562;-76
2023/02/10 06:06:45;;;;;;;64.50;33.40;;;;;;;-7.16;64.85;98862.68;108891;1251;96448;-77
2023/02/10 06:09:13;;;;;;;98.00;49.20;;;;;;;-7.15;65.00;98865.95;108806;1251;112552;-76
2023/02/10 06:11:41;;;;;;;121.00;56.90;;;;;;;-7.15;64.74;98866.46;108884;1251;101336;-76
2023/02/10 06:14:09;;;;;;;101.50;47.10;;;;;;;-7.19;64.72;98870.13;108643;1251;99954;-77
2023/02/10 06:16:37;;;;;;;94.90;45.90;;;;;;;-7.23;64.65;98869.44;108876;1251;95556;-76
2023/02/10 06:19:05;;;;;;;64.30;31.30;;;;;;;-7.22;64.76;98868.69;108878;1251;95976;-77
2023/02/10 06:21:33;;;;;;;54.30;28.60;;;;;;;-7.22;64.94;98873.42;108930;1251;103827;-78
2023/02/10 06:24:01;;;;;;;58.60;32.10;;;;;;;-7.22;65.15;98874.47;108931;1250;100950;-77
2023/02/10 06:26:30;;;;;;;59.50;30.70;;;;;;;-7.19;65.08;98875.73;108807;1251;100031;-76
2023/02/10 06:28:58;;;;;;;68.00;34.70;;;;;;;-7.22;65.03;98868.00;108867;1251;95501;-75
2023/02/10 06:31:26;;;;;;;49.50;26.80;;;;;;;-7.25;65.09;98870.91;108715;1251;96017;-76
2023/02/10 06:33:54;;;;;;;44.40;26.10;;;;;;;-7.21;65.16;98872.14;108836;1250;112120;-77
2023/02/10 06:36:22;;;;;;;43.20;26.20;;;;;;;-7.17;65.23;98874.41;108623;1256;111698;-76
2023/02/10 06:38:51;;;;;;;57.50;32.00;;;;;;;-7.12;65.15;98879.09;108559;1252;99409;-76
2023/02/10 06:41:19;;;;;;;69.90;37.40;;;;;;;-7.11;65.25;98873.64;108753;1252;96081;-76
2023/02/10 06:43:47;;;;;;;63.00;34.60;;;;;;;-7.09;65.18;98874.94;108822;1252;95999;-76
2023/02/10 06:46:15;;;;;;;63.40;35.50;;;;;;;-7.06;65.26;98874.30;108863;1251;103062;-75
2023/02/10 06:48:43;;;;;;;63.70;36.40;;;;;;;-7.02;65.17;98875.20;108811;1252;101292;-78
2023/02/10 06:51:11;;;;;;;56.80;32.60;;;;;;;-7.00;65.06;98876.48;108778;1253;99615;-76
2023/02/10 06:53:39;;;;;;;61.40;33.50;;;;;;;-6.98;65.02;98876.73;108773;1254;96571;-76
2023/02/10 06:56:07;;;;;;;68.80;36.30;;;;;;;-6.98;64.98;98879.52;108631;1251;96482;-74
2023/02/10 06:58:36;;;;;;;73.90;39.00;;;;;;;-6.98;64.91;98883.03;108800;1253;103133;-75
2023/02/10 07:01:09;;;;;;;67.20;35.10;;;;;;;-6.99;64.85;98880.42;108794;1253;109984;-77
2023/02/10 07:03:37;;;;;;;59.00;33.10;;;;;;;-6.94;65.06;98882.00;108738;1252;99824;-76
2023/02/10 07:06:06;;;;;;;53.40;31.20;;;;;;;-6.89;65.18;98880.90;108778;1252;95617;-77
2023/02/10 07:08:34;;;;;;;52.10;30.90;;;;;;;-6.84;65.26;98880.34;108639;1253;97087;-77
2023/02/10 07:11:02;;;;;;;57.80;31.80;;;;;;;-6.80;65.38;98879.98;108833;1252;103553;-75
2023/02/10 07:13:30;;;;;;;51.10;29.70;;;;;;;-6.71;65.38;98880.11;108850;1253;101339;-75
2023/02/10 07:15:58;;;;;;;54.70;31.60;;;;;;;-6.64;65.45;98879.08;108751;1254;98714;-78
2023/02/10 07:18:27;;;;;;;50.70;29.80;;;;;;;-6.53;65.35;98879.61;108788;1252;95548;-75
2023/02/10 07:20:55;;;;;;;66.40;38.60;;;;;;;-6.42;65.38;98875.77;108695;1251;96020;-76
2023/02/10 07:23:23;;;;;;;62.10;34.30;;;;;;;-6.32;65.36;98875.30;108669;1251;103126;-77
2023/02/10 07:25:51;;;;;;;58.00;32.50;;;;;;;-6.21;65.30;98877.83;108604;1251;101607;-76
2023/02/10 07:28:20;;;;;;;65.40;35.60;;;;;;;-6.10;65.34;98874.50;108600;1254;99757;-78
2023/02/10 07:30:48;;;;;;;59.10;33.20;;;;;;;-5.99;65.35;98872.39;108537;1256;95887;-77
2023/02/10 07:33:16;;;;;;;68.50;36.50;;;;;;;-5.88;65.19;98873.36;108764;1252;96081;-76
2023/02/10 07:35:44;;;;;;;66.50;35.20;;;;;;;-5.77;65.18;98875.30;108814;1253;103758;-76
2023/02/10 07:38:12;;;;;;;62.00;33.00;;;;;;;-5.67;65.04;98877.59;108697;1252;102480;-76
2023/02/10 07:40:40;;;;;;;66.60;34.30;;;;;;;-5.56;65.09;98873.38;108592;1251;99920;-76
2023/02/10 07:43:08;;;;;;;59.50;31.90;;;;;;;-5.44;65.05;98871.57;108815;1252;95665;-76
2023/02/10 07:45:36;;;;;;;63.40;32.20;;;;;;;-5.31;64.85;98869.16;108743;1251;172791;-77
2023/02/10 07:48:08;;;;;;;63.70;33.40;;;;;;;-5.18;64.72;98865.66;108792;1252;102065;-76
2023/02/10 07:50:36;;;;;;;45.10;24.40;;;;;;;-5.04;64.73;98865.10;108828;1251;102037;-77
2023/02/10 07:53:05;;;;;;;68.20;34.60;;;;;;;-4.91;64.59;98867.58;108814;1252;100213;-76
2023/02/10 07:55:34;;;;;;;67.00;31.20;;;;;;;-4.77;64.45;98863.17;108802;1253;95549;-75
2023/02/10 07:58:02;;;;;;;72.50;33.70;;;;;;;-4.64;64.41;98866.01;108882;1251;96361;-76
2023/02/10 08:00:30;;;;;;;67.60;32.30;;;;;;;-4.50;64.22;98867.86;108838;1250;103524;-76
2023/02/10 08:02:58;;;;;;;64.40;33.30;;;;;;;-4.36;64.09;98865.50;108855;1251;101273;-76
2023/02/10 08:05:28;;;;;;;63.60;33.10;;;;;;;-4.20;63.98;98864.09;108833;1251;99978;-76
2023/02/10 08:07:56;;;;;;;56.50;31.50;;;;;;;-4.02;63.94;98863.46;108872;1251;95588;-76
2023/02/10 08:10:24;;;;;;;66.20;31.30;;;;;;;-3.83;63.77;98862.93;108896;1251;96071;-76
2023/02/10 08:12:52;;;;;;;67.30;31.30;;;;;;;-3.64;63.67;98860.11;108834;1251;103762;-76
2023/02/10 08:15:22;;;;;;;44.70;21.70;;;;;;;-3.48;63.39;98860.88;108678;1254;101481;-76
2023/02/10 08:17:50;;;;;;;48.10;23.80;;;;;;;-3.28;63.15;98864.13;108756;1251;100389;-76
2023/02/10 08:20:18;;;;;;;43.70;23.00;;;;;;;-3.11;62.86;98870.86;108827;1251;95904;-75
2023/02/10 08:22:46;;;;;;;37.90;20.00;;;;;;;-2.95;62.62;98871.50;108861;1251;96006;-76
2023/02/10 08:25:14;;;;;;;33.50;18.40;;;;;;;-2.75;62.50;98872.58;108853;1251;103089;-75
2023/02/10 08:27:42;;;;;;;43.00;22.30;;;;;;;-2.54;61.94;98879.02;108647;1254;107696;-75
2023/02/10 08:30:11;;;;;;;35.20;19.30;;;;;;;-2.35;61.72;98876.65;108627;1251;98593;-76
2023/02/10 08:32:39;;;;;;;34.60;18.40;;;;;;;-2.17;61.58;98873.55;108654;1251;95650;-76
2023/02/10 08:35:07;;;;;;;34.20;18.90;;;;;;;-1.97;61.46;98877.41;108890;1251;96020;-75
2023/02/10 08:37:36;;;;;;;35.90;19.10;;;;;;;-1.76;61.36;98878.15;108829;1251;103497;-76
2023/02/10 08:40:06;;;;;;;38.60;20.60;;;;;;;-1.54;60.98;98876.55;108864;1251;101490;-76
2023/02/10 08:42:35;;;;;;;32.30;18.70;;;;;;;-1.34;60.82;98878.77;108861;1250;99062;-76
2023/02/10 08:45:03;;;;;;;31.10;17.90;;;;;;;-1.13;60.47;98881.25;108866;1251;95616;-76
2023/02/10 08:47:34;;;;;;;34.20;18.20;;;;;;;-0.89;60.52;98881.55;108903;1251;95983;-76
2023/02/10 08:50:02;;;;;;;34.60;17.60;;;;;;;-0.66;60.07;98879.96;108822;1251;103504;-76
2023/02/10 08:52:31;;;;;;;31.20;17.40;;;;;;;-0.46;59.56;98878.23;108893;1251;100230;-76
2023/02/10 08:54:59;;;;;;;33.30;17.50;;;;;;;-0.24;59.55;98877.05;108785;1252;100039;-76
2023/02/10 08:57:27;;;;;;;32.00;17.60;;;;;;;-0.01;59.03;98882.66;108747;1251;95912;-76
2023/02/10 08:59:55;;;;;;;32.70;17.40;;;;;;;0.21;58.79;98878.55;108768;1252;95921;-76
2023/02/10 09:02:23;;;;;;;36.90;18.70;;;;;;;0.41;58.48;98871.26;108814;1254;103370;-76
2023/02/10 09:04:52;;;;;;;33.00;17.60;;;;;;;0.68;58.06;98875.46;108553;1252;111340;-76
2023/02/10 09:07:20;;;;;;;31.30;17.50;;;;;;;0.95;57.59;98877.33;108733;1253;100099;-76
2023/02/10 09:09:48;;;;;;;31.20;17.50;;;;;;;1.19;57.33;98881.88;108721;1253;95642;-76
2023/02/10 09:12:16;;;;;;;31.00;18.20;;;;;;;1.43;57.09;98881.96;108792;1253;95942;-76
2023/02/10 09:14:44;;;;;;;29.60;17.10;;;;;;;1.65;57.08;98880.39;108808;1252;102659;-76
2023/02/10 09:17:13;;;;;;;32.20;17.70;;;;;;;1.79;56.50;98880.04;108751;1256;101180;-76
2023/02/10 09:19:41;;;;;;;28.60;16.90;;;;;;;1.97;56.17;98880.52;108699;1252;98588;-76
2023/02/10 09:22:09;;;;;;;29.40;17.20;;;;;;;2.11;55.71;98881.53;108457;1252;95983;-77
2023/02/10 09:24:37;;;;;;;28.20;16.80;;;;;;;2.26;55.48;98879.77;108808;1252;96680;-77
2023/02/10 09:27:05;;;;;;;29.00;17.90;;;;;;;2.41;55.22;98882.11;108805;1251;103874;-77
2023/02/10 09:29:33;;;;;;;29.00;15.80;;;;;;;2.53;54.94;98882.21;108886;1251;101269;-78
2023/02/10 09:32:01;;;;;;;29.70;16.80;;;;;;;2.70;54.85;98884.90;108842;1251;100163;-81
2023/02/10 09:34:33;;;;;;;29.60;16.70;;;;;;;2.86;54.21;98887.68;108485;1251;95852;-80
2023/02/10 09:37:02;;;;;;;33.30;16.80;;;;;;;3.01;54.02;98890.17;108838;1251;95639;-77
2023/02/10 09:39:31;;;;;;;28.10;17.70;;;;;;;3.06;53.65;98895.55;108764;1251;102451;-77
2023/02/10 09:42:10;;;;;;;30.60;18.40;;;;;;;3.10;53.19;98892.77;108854;1251;101431;-77
2023/02/10 09:44:45;;;;;;;30.40;17.30;;;;;;;3.16;53.02;98896.13;108806;1251;100179;-77
2023/02/10 09:47:36;;;;;;;32.50;17.30;;;;;;;3.18;52.84;98890.98;108833;1251;95581;-77
2023/02/10 09:50:16;;;;;;;30.40;17.10;;;;;;;3.21;52.46;98884.17;108610;1254;96480;-77
2023/02/10 09:53:00;;;;;;;31.60;17.90;;;;;;;3.36;52.53;98883.41;108791;1256;102026;-78
2023/02/10 09:55:37;;;;;;;29.90;17.90;;;;;;;3.42;52.05;98882.43;108830;1251;101184;-77
2023/02/10 09:58:05;;;;;;;27.90;16.00;;;;;;;3.50;51.70;98879.18;108837;1252;99954;-77
2023/02/10 10:00:41;;;;;;;28.40;17.10;;;;;;;3.61;51.55;98872.39;108478;1252;95606;-77
2023/02/10 10:03:20;;;;;;;32.10;18.10;;;;;;;3.72;51.19;98862.90;108805;1253;95635;-77
2023/02/10 10:06:22;;;;;;;29.40;17.20;;;;;;;3.94;51.23;98860.26;108825;1250;103576;-77
2023/02/10 10:09:19;;;;;;;31.50;17.30;;;;;;;4.13;50.52;98851.10;108851;1252;101353;-77
2023/02/10 10:11:50;;;;;;;31.30;17.70;;;;;;;4.11;50.24;98847.68;108753;1252;100529;-77
2023/02/10 10:14:27;;;;;;;31.10;16.30;;;;;;;4.20;50.45;98850.24;108817;1254;97020;-77
2023/02/10 10:17:20;;;;;;;33.60;18.10;;;;;;;4.33;50.18;98845.84;108827;1252;95656;-77
2023/02/10 10:20:04;;;;;;;30.70;17.60;;;;;;;4.49;49.85;98841.77;108826;1250;103627;-77
2023/02/10 10:22:47;;;;;;;29.00;16.80;;;;;;;4.70;49.72;98841.59;108819;1254;100092;-77
2023/02/10 10:25:58;;;;;;;31.80;17.50;;;;;;;4.91;49.53;98839.02;108784;1251;97747;-78
2023/02/10 10:28:57;;;;;;;28.50;16.80;;;;;;;5.11;49.14;98839.82;108849;1251;95618;-77
2023/02/10 10:31:31;;;;;;;33.10;18.10;;;;;;;5.35;48.95;98838.39;108874;1251;95989;-77
2023/02/10 10:34:08;;;;;;;37.60;18.40;;;;;;;5.48;48.55;98838.11;108841;1255;102117;-77
2023/02/10 10:36:44;;;;;;;27.00;16.00;;;;;;;5.73;48.28;98836.45;108851;1251;101488;-77
2023/02/10 10:39:36;;;;;;;31.30;17.30;;;;;;;5.98;48.09;98840.96;108832;1252;98572;-77
2023/02/10 10:42:23;;;;;;;28.20;15.60;;;;;;;6.23;47.83;98841.48;108787;1251;95587;-77
2023/02/10 10:44:59;;;;;;;24.50;14.80;;;;;;;6.55;47.57;98841.37;108814;1251;96085;-78
2023/02/10 10:47:27;;;;;;;24.90;14.70;;;;;;;6.67;47.24;98834.77;108820;1251;103267;-78
2023/02/10 10:49:56;;;;;;;25.60;15.00;;;;;;;6.66;46.84;98829.34;108834;1251;101441;-78
2023/02/10 10:52:27;;;;;;;29.60;15.70;;;;;;;6.76;46.82;98824.65;108843;1251;98700;-78
2023/02/10 10:54:56;;;;;;;28.90;14.80;;;;;;;6.91;46.68;98825.92;108851;1251;95656;-77
2023/02/10 10:57:29;;;;;;;22.50;14.30;;;;;;;7.04;46.62;98825.51;108881;1251;95853;-78
2023/02/10 11:00:22;;;;;;;23.00;14.40;;;;;;;7.10;46.09;98822.05;108896;1251;103603;-78
2023/02/10 11:03:02;;;;;;;19.60;13.30;;;;;;;7.07;45.92;98815.52;108811;1254;101275;-79
2023/02/10 11:05:37;;;;;;;20.70;12.90;;;;;;;7.14;45.98;98812.98;108799;1251;98784;-78
2023/02/10 11:08:08;;;;;;;23.30;14.00;;;;;;;7.36;46.77;98813.02;108790;1251;95554;-79
2023/02/10 11:10:52;;;;;;;22.30;13.70;;;;;;;7.71;47.13;98814.85;108828;1251;95743;-80
2023/02/10 11:13:26;;;;;;;21.50;13.20;;;;;;;8.03;45.93;98813.95;108690;1251;102071;-80
2023/02/10 11:16:05;;;;;;;23.40;14.90;;;;;;;8.26;45.19;98810.11;108871;1251;101398;-79
2023/02/10 11:18:34;;;;;;;24.20;13.80;;;;;;;8.30;44.67;98807.89;108893;1251;100618;-80
2023/02/10 11:21:06;;;;;;;21.70;12.60;;;;;;;8.20;44.13;98803.71;108855;1251;95536;-78
2023/02/10 11:23:48;;;;;;;21.20;13.80;;;;;;;8.04;43.95;98803.88;108713;1251;96018;-79
2023/02/10 11:26:23;;;;;;;19.20;12.80;;;;;;;7.94;44.10;98802.92;108697;1251;102656;-79
2023/02/10 11:28:52;;;;;;;20.20;13.50;;;;;;;7.86;43.98;98799.25;108801;1251;100270;-79